createdAt,value
2023-10-12T00:00:11.695Z,9.00
2023-10-12T00:00:23.466Z,8.65
2023-10-12T00:00:35.304Z,8.57
2023-10-12T00:00:47.079Z,8.40
2023-10-12T00:00:58.914Z,8.02
2023-10-12T00:01:10.734Z,7.93
2023-10-12T00:01:22.472Z,8.32
2023-10-12T00:01:34.162Z,8.52
2023-10-12T00:01:47.231Z,8.70
2023-10-12T00:01:59.977Z,8.73
2023-10-12T00:02:13.398Z,8.82
2023-10-12T00:02:26.364Z,8.60
2023-10-12T00:02:38.103Z,8.48
2023-10-12T00:02:49.959Z,8.45
2023-10-12T00:03:01.777Z,8.27
2023-10-12T00:03:13.723Z,8.27
2023-10-12T00:03:25.635Z,8.27
2023-10-12T00:03:37.554Z,8.20
2023-10-12T00:03:49.277Z,8.10
2023-10-12T00:04:01.063Z,8.05
2023-10-12T00:04:14.325Z,8.40
2023-10-12T00:04:28.645Z,8.82
2023-10-12T00:04:40.767Z,8.38
2023-10-12T00:04:52.675Z,8.45
2023-10-12T00:05:04.913Z,9.15
2023-10-12T00:05:16.716Z,9.75
2023-10-12T00:05:28.412Z,9.50
2023-10-12T00:05:40.177Z,9.43
2023-10-12T00:05:51.887Z,8.32
2023-10-12T00:06:03.773Z,8.00
2023-10-12T00:06:15.460Z,8.38
2023-10-12T00:06:27.184Z,8.43
2023-10-12T00:06:39.065Z,8.30
2023-10-12T00:06:50.861Z,7.93
2023-10-12T00:07:02.654Z,8.07
2023-10-12T00:07:14.429Z,8.10
2023-10-12T00:07:26.196Z,8.32
2023-10-12T00:07:37.932Z,8.43
2023-10-12T00:07:49.696Z,8.90
2023-10-12T00:08:01.728Z,9.10
2023-10-12T00:08:14.310Z,8.52
2023-10-12T00:08:26.053Z,8.30
2023-10-12T00:08:37.731Z,8.65
2023-10-12T00:08:49.441Z,8.75
2023-10-12T00:09:01.165Z,9.02
2023-10-12T00:09:12.877Z,8.98
2023-10-12T00:09:24.567Z,9.05
2023-10-12T00:09:36.497Z,9.38
2023-10-12T00:09:49.134Z,8.70
2023-10-12T00:10:01.702Z,8.50
2023-10-12T00:10:14.105Z,8.75
2023-10-12T00:10:25.855Z,8.55
2023-10-12T00:10:37.576Z,8.32
2023-10-12T00:10:49.335Z,8.55
2023-10-12T00:11:01.015Z,8.90
2023-10-12T00:11:12.734Z,8.70
2023-10-12T00:11:32.377Z,8.18
2023-10-12T00:11:44.747Z,9.00
2023-10-12T00:11:56.492Z,9.73
2023-10-12T00:12:08.205Z,9.25
2023-10-12T00:12:20.037Z,9.05
2023-10-12T00:12:31.771Z,8.50
2023-10-12T00:12:45.569Z,8.38
2023-10-12T00:12:57.427Z,8.70
2023-10-12T00:13:10.178Z,8.80
2023-10-12T00:13:21.946Z,8.95
2023-10-12T00:13:33.713Z,9.10
2023-10-12T00:13:45.489Z,9.30
2023-10-12T00:13:57.220Z,9.05
2023-10-12T00:14:08.939Z,8.68
2023-10-12T00:14:20.644Z,8.93
2023-10-12T00:14:32.383Z,9.70
2023-10-12T00:14:44.125Z,9.93
2023-10-12T00:14:56.022Z,9.57
2023-10-12T00:15:08.691Z,8.95
2023-10-12T00:15:22.168Z,8.90
2023-10-12T00:15:34.308Z,8.45
2023-10-12T00:15:46.082Z,8.30
2023-10-12T00:15:57.813Z,8.60
2023-10-12T00:16:09.723Z,9.23
2023-10-12T00:16:21.525Z,9.55
2023-10-12T00:16:33.348Z,9.20
2023-10-12T00:16:45.159Z,8.65
2023-10-12T00:16:56.945Z,9.07
2023-10-12T00:17:08.885Z,9.77
2023-10-12T00:17:20.569Z,9.73
2023-10-12T00:17:32.276Z,9.82
2023-10-12T00:17:44.289Z,9.45
2023-10-12T00:17:58.653Z,9.38
2023-10-12T00:18:10.575Z,9.15
2023-10-12T00:18:22.502Z,9.00
2023-10-12T00:18:34.265Z,9.55
2023-10-12T00:18:46.490Z,9.90
2023-10-12T00:18:58.277Z,9.52
2023-10-12T00:19:09.990Z,9.15
2023-10-12T00:19:23.235Z,8.88
2023-10-12T00:19:34.998Z,9.23
2023-10-12T00:19:46.788Z,9.50
2023-10-12T00:19:58.595Z,9.82
2023-10-12T00:20:11.228Z,9.32
2023-10-12T00:20:23.034Z,9.18
2023-10-12T00:20:34.832Z,9.52
2023-10-12T00:20:46.597Z,9.45
2023-10-12T00:20:58.846Z,9.70
2023-10-12T00:21:10.567Z,10.00
2023-10-12T00:21:22.319Z,9.77
2023-10-12T00:21:34.109Z,9.23
2023-10-12T00:21:45.815Z,8.82
2023-10-12T00:21:57.710Z,9.25
2023-10-12T00:22:09.567Z,9.70
2023-10-12T00:22:21.233Z,9.75
2023-10-12T00:22:32.976Z,9.73
2023-10-12T00:22:44.742Z,9.88
2023-10-12T00:22:56.679Z,10.18
2023-10-12T00:23:08.841Z,10.25
2023-10-12T00:23:20.738Z,9.52
2023-10-12T00:23:32.516Z,9.48
2023-10-12T00:23:44.327Z,9.35
2023-10-12T00:23:56.067Z,9.43
2023-10-12T00:24:08.354Z,8.98
2023-10-12T00:24:20.329Z,9.10
2023-10-12T00:24:32.268Z,9.32
2023-10-12T00:24:44.065Z,9.68
2023-10-12T00:24:55.896Z,9.77
2023-10-12T00:25:07.812Z,10.38
2023-10-12T00:25:19.541Z,10.13
2023-10-12T00:25:31.377Z,9.95
2023-10-12T00:25:44.540Z,10.25
2023-10-12T00:25:56.453Z,10.00
2023-10-12T00:26:08.245Z,9.07
2023-10-12T00:26:20.520Z,10.43
2023-10-12T00:26:38.298Z,11.38
2023-10-12T00:26:50.058Z,10.25
2023-10-12T00:27:01.848Z,10.32
2023-10-12T00:27:13.561Z,10.43
2023-10-12T00:27:25.322Z,10.20
2023-10-12T00:27:37.024Z,9.77
2023-10-12T00:27:48.762Z,10.43
2023-10-12T00:28:00.533Z,10.90
2023-10-12T00:28:12.595Z,10.95
2023-10-12T00:28:25.787Z,10.23
2023-10-12T00:28:37.468Z,10.32
2023-10-12T00:28:49.203Z,10.50
2023-10-12T00:29:00.962Z,10.90
2023-10-12T00:29:12.643Z,10.70
2023-10-12T00:29:24.418Z,10.05
2023-10-12T00:29:36.184Z,9.25
2023-10-12T00:29:47.933Z,9.38
2023-10-12T00:30:00.304Z,9.68
2023-10-12T00:30:12.956Z,9.57
2023-10-12T00:30:24.722Z,9.48
2023-10-12T00:30:36.538Z,9.57
2023-10-12T00:30:49.707Z,9.85
2023-10-12T00:31:01.641Z,10.18
2023-10-12T00:31:13.542Z,10.48
2023-10-12T00:31:25.382Z,10.57
2023-10-12T00:31:37.360Z,10.85
2023-10-12T00:31:49.285Z,10.30
2023-10-12T00:32:00.988Z,10.25
2023-10-12T00:32:14.041Z,9.98
2023-10-12T00:32:25.757Z,9.60
2023-10-12T00:32:37.563Z,9.60
2023-10-12T00:32:49.539Z,9.80
2023-10-12T00:33:01.410Z,9.80
2023-10-12T00:33:13.222Z,9.98
2023-10-12T00:33:25.798Z,9.75
2023-10-12T00:33:37.766Z,9.93
2023-10-12T00:33:49.635Z,9.98
2023-10-12T00:34:01.567Z,10.27
2023-10-12T00:34:13.369Z,10.27
2023-10-12T00:34:26.438Z,9.95
2023-10-12T00:34:38.974Z,9.77
2023-10-12T00:34:50.672Z,9.45
2023-10-12T00:35:02.485Z,9.50
2023-10-12T00:35:14.371Z,9.63
2023-10-12T00:35:26.209Z,10.38
2023-10-12T00:35:37.945Z,11.00
2023-10-12T00:35:50.026Z,11.32
2023-10-12T00:36:02.140Z,10.52
2023-10-12T00:36:14.077Z,10.55
2023-10-12T00:36:27.034Z,10.30
2023-10-12T00:36:39.088Z,10.13
2023-10-12T00:36:51.919Z,10.23
2023-10-12T00:37:03.822Z,10.88
2023-10-12T00:37:15.579Z,11.13
2023-10-12T00:37:27.293Z,10.93
2023-10-12T00:37:39.120Z,11.00
2023-10-12T00:37:50.855Z,10.75
2023-10-12T00:38:02.716Z,10.68
2023-10-12T00:38:14.470Z,10.23
2023-10-12T00:38:26.243Z,10.27
2023-10-12T00:38:37.922Z,10.98
2023-10-12T00:38:49.813Z,10.77
2023-10-12T00:39:01.491Z,11.00
2023-10-12T00:39:13.391Z,11.13
2023-10-12T00:39:25.140Z,11.32
2023-10-12T00:39:36.891Z,10.52
2023-10-12T00:39:48.737Z,9.95
2023-10-12T00:40:00.525Z,10.68
2023-10-12T00:40:13.662Z,11.30
2023-10-12T00:40:25.381Z,11.02
2023-10-12T00:40:37.077Z,10.60
2023-10-12T00:40:52.860Z,10.70
2023-10-12T00:41:04.758Z,10.82
2023-10-12T00:41:16.657Z,10.48
2023-10-12T00:41:28.328Z,10.48
2023-10-12T00:41:40.328Z,11.00
2023-10-12T00:41:53.436Z,11.15
2023-10-12T00:42:07.059Z,10.75
2023-10-12T00:42:18.880Z,10.50
2023-10-12T00:42:30.624Z,10.52
2023-10-12T00:42:42.459Z,10.65
2023-10-12T00:42:54.343Z,10.60
2023-10-12T00:43:06.125Z,10.63
2023-10-12T00:43:17.978Z,10.52
2023-10-12T00:43:29.711Z,10.18
2023-10-12T00:43:51.205Z,10.07
2023-10-12T00:44:03.036Z,11.05
2023-10-12T00:44:14.755Z,11.35
2023-10-12T00:44:26.516Z,10.80
2023-10-12T00:44:38.286Z,10.40
2023-10-12T00:44:50.081Z,11.05
2023-10-12T00:45:01.837Z,11.00
2023-10-12T00:45:13.560Z,10.70
2023-10-12T00:45:25.258Z,10.18
2023-10-12T00:45:37.074Z,10.85
2023-10-12T00:45:48.888Z,10.93
2023-10-12T00:46:01.179Z,10.73
2023-10-12T00:46:13.021Z,9.52
2023-10-12T00:46:24.907Z,9.32
2023-10-12T00:46:37.493Z,9.68
2023-10-12T00:46:49.331Z,10.15
2023-10-12T00:47:01.064Z,10.18
2023-10-12T00:47:12.745Z,10.25
2023-10-12T00:47:24.497Z,9.68
2023-10-12T00:47:36.204Z,9.75
2023-10-12T00:47:47.934Z,9.93
2023-10-12T00:47:59.802Z,9.98
2023-10-12T00:48:11.622Z,10.27
2023-10-12T00:48:23.501Z,10.23
2023-10-12T00:48:35.319Z,10.23
2023-10-12T00:48:47.533Z,10.55
2023-10-12T00:48:59.894Z,10.52
2023-10-12T00:49:11.935Z,9.95
2023-10-12T00:49:24.321Z,9.75
2023-10-12T00:49:37.646Z,9.88
2023-10-12T00:49:49.498Z,10.15
2023-10-12T00:50:01.292Z,10.60
2023-10-12T00:50:13.720Z,10.52
2023-10-12T00:50:25.478Z,10.55
2023-10-12T00:50:37.688Z,10.43
2023-10-12T00:50:50.120Z,10.02
2023-10-12T00:51:02.162Z,9.98
2023-10-12T00:51:13.886Z,10.57
2023-10-12T00:51:25.813Z,10.43
2023-10-12T00:51:37.813Z,10.10
2023-10-12T00:51:50.704Z,9.90
2023-10-12T00:52:02.762Z,10.18
2023-10-12T00:52:14.610Z,10.18
2023-10-12T00:52:26.485Z,9.57
2023-10-12T00:52:39.406Z,9.48
2023-10-12T00:52:51.346Z,9.20
2023-10-12T00:53:04.580Z,9.43
2023-10-12T00:53:17.362Z,10.00
2023-10-12T00:53:29.093Z,10.13
2023-10-12T00:53:40.882Z,9.80
2023-10-12T00:53:52.684Z,9.70
2023-10-12T00:54:05.357Z,9.88
2023-10-12T00:54:17.935Z,9.93
2023-10-12T00:54:31.158Z,9.73
2023-10-12T00:54:43.067Z,9.98
2023-10-12T00:54:55.836Z,10.40
2023-10-12T00:55:08.057Z,10.40
2023-10-12T00:55:19.887Z,9.85
2023-10-12T00:55:33.162Z,10.02
2023-10-12T00:55:46.997Z,10.50
2023-10-12T00:55:58.974Z,10.43
2023-10-12T00:56:10.736Z,9.68
2023-10-12T00:56:23.053Z,10.10
2023-10-12T00:56:34.911Z,10.02
2023-10-12T00:56:46.703Z,9.77
2023-10-12T00:56:59.472Z,9.63
2023-10-12T00:57:11.180Z,9.70
2023-10-12T00:57:23.216Z,9.70
2023-10-12T00:57:35.000Z,9.68
2023-10-12T00:57:47.500Z,9.77
2023-10-12T00:57:59.306Z,9.90
2023-10-12T00:58:11.035Z,9.98
2023-10-12T00:58:22.790Z,9.90
2023-10-12T00:58:34.471Z,9.48
2023-10-12T00:58:46.525Z,9.93
2023-10-12T00:58:58.529Z,9.50
2023-10-12T00:59:10.243Z,10.18
2023-10-12T00:59:22.134Z,10.52
2023-10-12T00:59:34.231Z,10.25
2023-10-12T00:59:45.970Z,9.52
2023-10-12T00:59:57.643Z,9.50
2023-10-12T01:00:10.540Z,9.82
2023-10-12T01:00:22.272Z,9.82
2023-10-12T01:00:35.975Z,9.80
2023-10-12T01:00:47.864Z,10.38
2023-10-12T01:00:59.653Z,10.50
2023-10-12T01:01:11.412Z,10.23
2023-10-12T01:01:23.446Z,10.07
2023-10-12T01:01:35.719Z,9.75
2023-10-12T01:01:47.496Z,9.65
2023-10-12T01:02:00.203Z,9.52
2023-10-12T01:02:12.330Z,9.65
2023-10-12T01:02:24.145Z,9.85
2023-10-12T01:02:35.982Z,9.88
2023-10-12T01:02:47.880Z,10.07
2023-10-12T01:02:59.670Z,10.00
2023-10-12T01:03:11.611Z,10.18
2023-10-12T01:03:23.362Z,10.20
2023-10-12T01:03:35.168Z,10.15
2023-10-12T01:03:47.008Z,10.23
2023-10-12T01:03:58.876Z,9.95
2023-10-12T01:04:10.697Z,9.73
2023-10-12T01:04:22.463Z,9.57
2023-10-12T01:04:34.196Z,9.55
2023-10-12T01:04:47.376Z,9.63
2023-10-12T01:04:59.109Z,9.93
2023-10-12T01:05:10.866Z,9.73
2023-10-12T01:05:22.597Z,9.88
2023-10-12T01:05:34.418Z,9.90
2023-10-12T01:05:46.379Z,9.95
2023-10-12T01:06:00.079Z,9.70
2023-10-12T01:06:12.101Z,9.77
2023-10-12T01:06:24.125Z,9.52
2023-10-12T01:06:35.897Z,9.50
2023-10-12T01:06:47.758Z,9.43
2023-10-12T01:06:59.658Z,9.55
2023-10-12T01:07:11.704Z,9.65
2023-10-12T01:07:23.500Z,9.43
2023-10-12T01:07:35.164Z,9.65
2023-10-12T01:07:46.929Z,9.68
2023-10-12T01:07:58.680Z,10.13
2023-10-12T01:08:13.419Z,9.75
2023-10-12T01:08:25.290Z,9.30
2023-10-12T01:08:37.983Z,9.30
2023-10-12T01:08:50.250Z,9.80
2023-10-12T01:09:01.942Z,9.65
2023-10-12T01:09:13.694Z,9.45
2023-10-12T01:09:25.659Z,9.32
2023-10-12T01:09:37.820Z,9.57
2023-10-12T01:09:49.929Z,9.30
2023-10-12T01:10:01.790Z,9.48
2023-10-12T01:10:13.505Z,9.43
2023-10-12T01:10:25.286Z,9.48
2023-10-12T01:10:37.088Z,9.80
2023-10-12T01:10:48.807Z,9.27
2023-10-12T01:11:01.097Z,9.32
2023-10-12T01:11:13.674Z,9.20
2023-10-12T01:11:25.415Z,9.07
2023-10-12T01:11:37.139Z,9.38
2023-10-12T01:11:50.507Z,9.60
2023-10-12T01:12:02.281Z,9.57
2023-10-12T01:12:14.059Z,9.55
2023-10-12T01:12:25.746Z,9.20
2023-10-12T01:12:37.630Z,9.48
2023-10-12T01:12:49.342Z,9.77
2023-10-12T01:13:01.160Z,9.73
2023-10-12T01:13:12.879Z,10.10
2023-10-12T01:13:24.569Z,9.75
2023-10-12T01:13:36.310Z,9.77
2023-10-12T01:13:49.204Z,9.30
2023-10-12T01:14:01.002Z,9.55
2023-10-12T01:14:12.766Z,9.75
2023-10-12T01:14:24.576Z,9.60
2023-10-12T01:14:36.351Z,9.43
2023-10-12T01:14:48.107Z,9.23
2023-10-12T01:14:59.908Z,8.93
2023-10-12T01:15:11.633Z,9.10
2023-10-12T01:15:23.922Z,9.20
2023-10-12T01:15:35.707Z,9.40
2023-10-12T01:15:47.532Z,9.75
2023-10-12T01:15:59.399Z,9.65
2023-10-12T01:16:11.306Z,9.32
2023-10-12T01:16:23.288Z,9.52
2023-10-12T01:16:35.076Z,9.13
2023-10-12T01:16:46.914Z,8.85
2023-10-12T01:16:58.820Z,8.73
2023-10-12T01:17:11.491Z,9.02
2023-10-12T01:17:23.290Z,9.30
2023-10-12T01:17:35.048Z,8.93
2023-10-12T01:17:46.842Z,9.00
2023-10-12T01:17:58.669Z,8.77
2023-10-12T01:18:10.388Z,9.10
2023-10-12T01:18:22.084Z,9.10
2023-10-12T01:18:33.817Z,9.93
2023-10-12T01:18:45.591Z,10.05
2023-10-12T01:18:57.408Z,9.85
2023-10-12T01:19:09.659Z,9.48
2023-10-12T01:19:21.606Z,9.05
2023-10-12T01:19:33.366Z,8.88
2023-10-12T01:19:45.480Z,8.90
2023-10-12T01:19:58.627Z,8.90
2023-10-12T01:20:11.274Z,8.60
2023-10-12T01:20:23.304Z,8.65
2023-10-12T01:20:35.081Z,9.05
2023-10-12T01:20:46.820Z,9.23
2023-10-12T01:20:58.553Z,8.60
2023-10-12T01:21:10.322Z,9.00
2023-10-12T01:21:22.155Z,9.00
2023-10-12T01:21:34.170Z,9.82
2023-10-12T01:21:47.411Z,9.75
2023-10-12T01:22:00.059Z,9.32
2023-10-12T01:22:12.488Z,9.45
2023-10-12T01:22:24.184Z,9.63
2023-10-12T01:22:35.892Z,9.45
2023-10-12T01:22:47.644Z,9.25
2023-10-12T01:22:59.444Z,9.00
2023-10-12T01:23:11.215Z,9.02
2023-10-12T01:23:22.956Z,9.10
2023-10-12T01:23:34.692Z,8.85
2023-10-12T01:23:46.441Z,8.85
2023-10-12T01:23:58.531Z,9.00
2023-10-12T01:24:10.433Z,9.10
2023-10-12T01:24:22.356Z,8.85
2023-10-12T01:24:34.180Z,8.57
2023-10-12T01:24:46.265Z,8.77
2023-10-12T01:24:58.120Z,8.70
2023-10-12T01:25:10.032Z,9.07
2023-10-12T01:25:21.776Z,9.52
2023-10-12T01:25:33.900Z,9.07
2023-10-12T01:25:45.660Z,8.88
2023-10-12T01:25:57.357Z,9.20
2023-10-12T01:26:09.144Z,9.43
2023-10-12T01:26:21.366Z,9.10
2023-10-12T01:26:33.074Z,9.30
2023-10-12T01:26:45.755Z,8.85
2023-10-12T01:26:58.104Z,9.18
2023-10-12T01:27:09.833Z,9.68
2023-10-12T01:27:21.990Z,10.10
2023-10-12T01:27:33.794Z,10.00
2023-10-12T01:27:45.685Z,9.90
2023-10-12T01:27:57.755Z,9.40
2023-10-12T01:28:09.494Z,9.40
2023-10-12T01:28:21.208Z,9.43
2023-10-12T01:28:32.911Z,9.00
2023-10-12T01:28:44.796Z,8.60
2023-10-12T01:28:56.556Z,8.20
2023-10-12T01:29:08.398Z,7.82
2023-10-12T01:29:20.105Z,7.95
2023-10-12T01:29:31.859Z,8.64
2023-10-12T01:29:43.638Z,9.02
2023-10-12T01:29:56.304Z,9.05
2023-10-12T01:30:09.300Z,8.40
2023-10-12T01:30:21.259Z,8.52
2023-10-12T01:30:32.997Z,8.80
2023-10-12T01:30:44.760Z,8.52
2023-10-12T01:30:56.532Z,8.52
2023-10-12T01:31:08.333Z,8.48
2023-10-12T01:31:20.025Z,8.93
2023-10-12T01:31:31.946Z,8.80
2023-10-12T01:31:43.825Z,8.95
2023-10-12T01:31:57.480Z,8.63
2023-10-12T01:32:09.258Z,8.60
2023-10-12T01:32:21.334Z,8.68
2023-10-12T01:32:33.170Z,8.60
2023-10-12T01:32:45.058Z,9.00
2023-10-12T01:32:57.442Z,9.65
2023-10-12T01:33:09.281Z,9.25
2023-10-12T01:33:21.099Z,9.00
2023-10-12T01:33:33.095Z,8.80
2023-10-12T01:33:44.922Z,9.05
2023-10-12T01:33:57.392Z,9.27
2023-10-12T01:34:09.174Z,9.25
2023-10-12T01:34:20.878Z,9.23
2023-10-12T01:34:32.600Z,9.13
2023-10-12T01:34:44.942Z,8.95
2023-10-12T01:34:56.649Z,8.60
2023-10-12T01:35:08.918Z,8.52
2023-10-12T01:35:21.134Z,9.43
2023-10-12T01:35:33.185Z,9.23
2023-10-12T01:35:44.940Z,9.20
2023-10-12T01:35:56.690Z,8.75
2023-10-12T01:36:08.420Z,9.48
2023-10-12T01:36:20.126Z,9.48
2023-10-12T01:36:32.075Z,9.23
2023-10-12T01:36:43.951Z,8.73
2023-10-12T01:36:57.166Z,8.73
2023-10-12T01:37:09.126Z,9.55
2023-10-12T01:37:21.375Z,9.65
2023-10-12T01:37:33.137Z,9.45
2023-10-12T01:37:44.828Z,9.50
2023-10-12T01:37:56.857Z,9.50
2023-10-12T01:38:08.684Z,9.50
2023-10-12T01:38:20.409Z,9.20
2023-10-12T01:38:32.118Z,9.35
2023-10-12T01:38:43.868Z,9.43
2023-10-12T01:38:55.655Z,9.55
2023-10-12T01:39:07.463Z,8.95
2023-10-12T01:39:19.196Z,8.57
2023-10-12T01:39:30.915Z,8.55
2023-10-12T01:39:42.691Z,9.30
2023-10-12T01:39:56.110Z,9.45
2023-10-12T01:40:09.317Z,9.18
2023-10-12T01:40:21.070Z,9.57
2023-10-12T01:40:33.252Z,9.80
2023-10-12T01:40:45.029Z,9.65
2023-10-12T01:40:57.666Z,9.40
2023-10-12T01:41:09.571Z,9.07
2023-10-12T01:41:22.737Z,9.40
2023-10-12T01:41:34.518Z,9.15
2023-10-12T01:41:46.249Z,9.68
2023-10-12T01:41:57.990Z,9.18
2023-10-12T01:42:10.561Z,8.55
2023-10-12T01:42:22.387Z,8.82
2023-10-12T01:42:34.684Z,9.32
2023-10-12T01:42:46.623Z,9.48
2023-10-12T01:42:58.544Z,9.32
2023-10-12T01:43:10.308Z,9.13
2023-10-12T01:43:22.054Z,9.35
2023-10-12T01:43:34.096Z,9.10
2023-10-12T01:43:45.801Z,9.57
2023-10-12T01:43:57.512Z,9.43
2023-10-12T01:44:09.411Z,8.52
2023-10-12T01:44:21.560Z,7.93
2023-10-12T01:44:33.369Z,7.78
2023-10-12T01:44:45.130Z,8.23
2023-10-12T01:44:56.851Z,8.45
2023-10-12T01:45:09.619Z,8.25
2023-10-12T01:45:22.186Z,8.32
2023-10-12T01:45:34.179Z,8.27
2023-10-12T01:45:46.543Z,8.57
2023-10-12T01:45:58.696Z,8.73
2023-10-12T01:46:10.585Z,8.85
2023-10-12T01:46:22.415Z,8.80
2023-10-12T01:46:34.303Z,8.90
2023-10-12T01:46:46.083Z,9.15
2023-10-12T01:46:57.889Z,9.35
2023-10-12T01:47:09.636Z,9.77
2023-10-12T01:47:21.384Z,9.43
2023-10-12T01:47:33.219Z,9.52
2023-10-12T01:47:45.266Z,9.30
2023-10-12T01:47:57.046Z,9.32
2023-10-12T01:48:09.038Z,9.52
2023-10-12T01:48:21.247Z,9.75
2023-10-12T01:48:33.113Z,9.27
2023-10-12T01:48:45.304Z,9.32
2023-10-12T01:48:57.024Z,9.40
2023-10-12T01:49:09.959Z,9.23
2023-10-12T01:49:21.668Z,9.18
2023-10-12T01:49:33.517Z,8.85
2023-10-12T01:49:45.197Z,8.60
2023-10-12T01:49:56.890Z,8.75
2023-10-12T01:50:09.048Z,9.07
2023-10-12T01:50:20.818Z,9.32
2023-10-12T01:50:32.706Z,9.02
2023-10-12T01:50:44.729Z,9.07
2023-10-12T01:50:56.439Z,8.98
2023-10-12T01:51:08.181Z,9.07
2023-10-12T01:51:20.348Z,8.95
2023-10-12T01:51:32.129Z,9.55
2023-10-12T01:51:43.897Z,9.82
2023-10-12T01:51:57.059Z,9.93
2023-10-12T01:52:08.778Z,9.27
2023-10-12T01:52:20.547Z,9.02
2023-10-12T01:52:33.459Z,8.82
2023-10-12T01:52:46.162Z,8.82
2023-10-12T01:52:57.925Z,8.85
2023-10-12T01:53:11.181Z,8.80
2023-10-12T01:53:23.029Z,8.85
2023-10-12T01:53:34.804Z,8.73
2023-10-12T01:53:46.569Z,9.07
2023-10-12T01:53:58.339Z,9.38
2023-10-12T01:54:10.295Z,9.00
2023-10-12T01:54:21.958Z,8.95
2023-10-12T01:54:33.738Z,9.32
2023-10-12T01:54:45.626Z,9.30
2023-10-12T01:54:57.476Z,9.32
2023-10-12T01:55:09.879Z,8.65
2023-10-12T01:55:21.664Z,8.80
2023-10-12T01:55:33.555Z,9.20
2023-10-12T01:55:45.384Z,9.35
2023-10-12T01:55:57.158Z,9.30
2023-10-12T01:56:09.087Z,9.52
2023-10-12T01:56:20.835Z,9.35
2023-10-12T01:56:33.329Z,8.88
2023-10-12T01:56:45.055Z,9.15
2023-10-12T01:56:56.705Z,9.18
2023-10-12T01:57:08.462Z,8.82
2023-10-12T01:57:20.153Z,8.43
2023-10-12T01:57:31.926Z,8.40
2023-10-12T01:57:43.928Z,9.05
2023-10-12T01:57:56.018Z,9.25
2023-10-12T01:58:07.807Z,9.35
2023-10-12T01:58:20.371Z,9.10
2023-10-12T01:58:32.120Z,8.57
2023-10-12T01:58:44.595Z,8.40
2023-10-12T01:58:56.425Z,8.77
2023-10-12T01:59:08.125Z,8.95
2023-10-12T01:59:20.118Z,9.02
2023-10-12T01:59:32.449Z,9.40
2023-10-12T01:59:44.204Z,8.95
2023-10-12T01:59:55.905Z,9.07
2023-10-12T02:00:08.657Z,9.30
2023-10-12T02:00:24.608Z,9.13
2023-10-12T02:00:37.309Z,8.55
2023-10-12T02:00:49.025Z,8.60
2023-10-12T02:01:00.779Z,8.85
2023-10-12T02:01:12.610Z,8.90
2023-10-12T02:01:24.640Z,9.07
2023-10-12T02:01:36.436Z,8.98
2023-10-12T02:01:48.663Z,9.38
2023-10-12T02:02:00.507Z,9.65
2023-10-12T02:02:12.323Z,9.25
2023-10-12T02:02:24.080Z,8.80
2023-10-12T02:02:35.930Z,8.60
2023-10-12T02:02:47.737Z,9.15
2023-10-12T02:02:59.505Z,8.88
2023-10-12T02:03:11.616Z,8.38
2023-10-12T02:03:24.684Z,7.95
2023-10-12T02:03:36.786Z,8.57
2023-10-12T02:03:48.606Z,9.05
2023-10-12T02:04:00.547Z,8.88
2023-10-12T02:04:12.358Z,8.95
2023-10-12T02:04:24.288Z,9.18
2023-10-12T02:04:36.113Z,9.02
2023-10-12T02:04:48.158Z,8.85
2023-10-12T02:05:00.219Z,8.77
2023-10-12T02:05:12.010Z,8.90
2023-10-12T02:05:24.590Z,8.82
2023-10-12T02:05:36.297Z,9.07
2023-10-12T02:05:48.162Z,9.00
2023-10-12T02:06:00.282Z,8.63
2023-10-12T02:06:13.519Z,8.77
2023-10-12T02:06:25.333Z,8.85
2023-10-12T02:06:37.117Z,9.00
2023-10-12T02:06:48.946Z,8.80
2023-10-12T02:07:02.129Z,8.68
2023-10-12T02:07:13.953Z,8.98
2023-10-12T02:07:25.754Z,8.75
2023-10-12T02:07:38.716Z,9.48
2023-10-12T02:07:50.445Z,9.70
2023-10-12T02:08:02.152Z,9.88
2023-10-12T02:08:15.848Z,8.98
2023-10-12T02:08:28.801Z,8.95
2023-10-12T02:08:42.192Z,9.38
2023-10-12T02:08:53.963Z,9.18
2023-10-12T02:09:05.715Z,8.95
2023-10-12T02:09:17.449Z,8.63
2023-10-12T02:09:29.255Z,8.20
2023-10-12T02:09:41.050Z,7.95
2023-10-12T02:09:52.917Z,8.60
2023-10-12T02:10:05.608Z,8.93
2023-10-12T02:10:17.412Z,9.40
2023-10-12T02:10:29.096Z,9.68
2023-10-12T02:10:40.782Z,9.52
2023-10-12T02:10:52.490Z,9.05
2023-10-12T02:11:04.532Z,9.45
2023-10-12T02:11:17.277Z,9.35
2023-10-12T02:11:29.168Z,9.40
2023-10-12T02:11:40.942Z,9.55
2023-10-12T02:11:52.788Z,9.55
2023-10-12T02:12:06.030Z,9.15
2023-10-12T02:12:17.716Z,8.65
2023-10-12T02:12:29.478Z,9.40
2023-10-12T02:12:41.223Z,9.50
2023-10-12T02:12:53.052Z,9.20
2023-10-12T02:13:04.786Z,8.63
2023-10-12T02:13:16.576Z,9.15
2023-10-12T02:13:28.351Z,9.30
2023-10-12T02:13:40.323Z,9.30
2023-10-12T02:13:52.086Z,9.32
2023-10-12T02:14:03.853Z,9.52
2023-10-12T02:14:15.634Z,9.88
2023-10-12T02:14:27.388Z,9.80
2023-10-12T02:14:39.185Z,9.20
2023-10-12T02:14:50.950Z,9.20
2023-10-12T02:15:02.732Z,9.05
2023-10-12T02:15:14.632Z,9.20
2023-10-12T02:15:26.386Z,9.05
2023-10-12T02:15:38.820Z,9.52
2023-10-12T02:15:50.876Z,9.63
2023-10-12T02:16:03.410Z,9.88
2023-10-12T02:16:16.236Z,9.75
2023-10-12T02:16:28.116Z,9.35
2023-10-12T02:16:40.209Z,9.73
2023-10-12T02:16:51.962Z,9.70
2023-10-12T02:17:03.753Z,9.55
2023-10-12T02:17:15.466Z,9.10
2023-10-12T02:17:27.735Z,9.25
2023-10-12T02:17:41.668Z,9.27
2023-10-12T02:17:53.478Z,9.27
2023-10-12T02:18:05.526Z,8.80
2023-10-12T02:18:17.506Z,8.90
2023-10-12T02:18:29.397Z,8.88
2023-10-12T02:18:42.256Z,8.65
2023-10-12T02:18:54.381Z,8.98
2023-10-12T02:19:06.667Z,9.25
2023-10-12T02:19:18.336Z,9.60
2023-10-12T02:19:30.125Z,9.68
2023-10-12T02:19:41.886Z,9.65
2023-10-12T02:19:53.640Z,9.85
2023-10-12T02:20:06.064Z,9.55
2023-10-12T02:20:19.028Z,9.05
2023-10-12T02:20:32.163Z,8.68
2023-10-12T02:20:43.927Z,8.93
2023-10-12T02:20:55.632Z,9.27
2023-10-12T02:21:07.417Z,9.52
2023-10-12T02:21:19.164Z,9.45
2023-10-12T02:21:31.473Z,8.98
2023-10-12T02:21:43.216Z,9.35
2023-10-12T02:21:55.051Z,9.85
2023-10-12T02:22:08.720Z,9.50
2023-10-12T02:22:20.443Z,9.07
2023-10-12T02:22:32.163Z,8.80
2023-10-12T02:22:43.854Z,9.05
2023-10-12T02:22:55.571Z,9.43
2023-10-12T02:23:07.276Z,9.70
2023-10-12T02:23:18.926Z,9.80
2023-10-12T02:23:30.771Z,9.38
2023-10-12T02:23:42.479Z,9.65
2023-10-12T02:23:54.593Z,9.65
2023-10-12T02:24:06.963Z,8.98
2023-10-12T02:24:18.799Z,8.63
2023-10-12T02:24:30.683Z,8.68
2023-10-12T02:24:42.464Z,8.93
2023-10-12T02:24:54.323Z,9.55
2023-10-12T02:25:06.895Z,9.80
2023-10-12T02:25:18.606Z,9.50
2023-10-12T02:25:30.948Z,9.02
2023-10-12T02:25:42.664Z,8.90
2023-10-12T02:25:54.418Z,9.20
2023-10-12T02:26:07.062Z,9.38
2023-10-12T02:26:20.267Z,8.63
2023-10-12T02:26:33.652Z,9.05
2023-10-12T02:26:46.888Z,9.23
2023-10-12T02:26:58.570Z,9.02
2023-10-12T02:27:10.288Z,9.15
2023-10-12T02:27:23.125Z,9.27
2023-10-12T02:27:34.884Z,9.23
2023-10-12T02:27:46.703Z,8.88
2023-10-12T02:27:58.448Z,8.95
2023-10-12T02:28:10.304Z,9.25
2023-10-12T02:28:22.072Z,9.65
2023-10-12T02:28:33.757Z,9.77
2023-10-12T02:28:45.462Z,9.57
2023-10-12T02:28:57.603Z,9.15
2023-10-12T02:29:10.808Z,8.32
2023-10-12T02:29:22.639Z,8.82
2023-10-12T02:29:34.385Z,9.68
2023-10-12T02:29:46.134Z,9.82
2023-10-12T02:29:57.952Z,9.00
2023-10-12T02:30:10.630Z,8.63
2023-10-12T02:30:22.947Z,8.90
2023-10-12T02:30:34.874Z,9.00
2023-10-12T02:30:51.447Z,9.18
2023-10-12T02:31:03.312Z,9.24
2023-10-12T02:31:15.200Z,9.07
2023-10-12T02:31:27.008Z,8.70
2023-10-12T02:31:40.979Z,9.02
2023-10-12T02:31:53.947Z,9.20
2023-10-12T02:32:05.762Z,9.07
2023-10-12T02:32:17.548Z,9.35
2023-10-12T02:32:29.294Z,9.75
2023-10-12T02:32:41.136Z,8.93
2023-10-12T02:32:52.844Z,8.65
2023-10-12T02:33:05.017Z,9.77
2023-10-12T02:33:16.729Z,9.90
2023-10-12T02:33:28.640Z,9.65
2023-10-12T02:33:40.614Z,9.52
2023-10-12T02:33:52.381Z,9.85
2023-10-12T02:34:04.357Z,9.57
2023-10-12T02:34:16.342Z,9.70
2023-10-12T02:34:29.508Z,9.45
2023-10-12T02:34:41.233Z,10.02
2023-10-12T02:34:52.897Z,9.88
2023-10-12T02:35:05.202Z,9.93
2023-10-12T02:35:16.875Z,9.48
2023-10-12T02:35:28.594Z,9.50
2023-10-12T02:35:40.292Z,8.82
2023-10-12T02:35:51.965Z,8.95
2023-10-12T02:36:03.888Z,9.13
2023-10-12T02:36:16.144Z,9.50
2023-10-12T02:36:27.875Z,9.45
2023-10-12T02:36:39.690Z,9.25
2023-10-12T02:36:51.501Z,9.30
2023-10-12T02:37:03.367Z,9.13
2023-10-12T02:37:16.539Z,8.80
2023-10-12T02:37:28.302Z,8.73
2023-10-12T02:37:40.089Z,8.43
2023-10-12T02:37:53.305Z,8.10
2023-10-12T02:38:05.335Z,8.25
2023-10-12T02:38:17.085Z,8.40
2023-10-12T02:38:28.765Z,8.88
2023-10-12T02:38:40.528Z,9.32
2023-10-12T02:38:52.222Z,9.00
2023-10-12T02:39:04.119Z,8.90
2023-10-12T02:39:15.786Z,8.88
2023-10-12T02:39:27.677Z,8.63
2023-10-12T02:39:41.346Z,8.82
2023-10-12T02:39:53.226Z,9.18